createdAt,value
2023-02-04T00:01:29.995Z,0.10
2023-02-04T00:03:56.520Z,0.20
2023-02-04T00:06:23.014Z,0.20
2023-02-04T00:08:49.532Z,0.47
2023-02-04T00:11:16.042Z,0.32
2023-02-04T00:13:42.608Z,0.13
2023-02-04T00:16:09.299Z,0.10
2023-02-04T00:18:35.815Z,0.05
2023-02-04T00:21:02.396Z,0.40
2023-02-04T00:23:29.140Z,0.10
2023-02-04T00:25:58.885Z,0.20
2023-02-04T00:28:25.409Z,0.10
2023-02-04T00:30:52.091Z,0.00
2023-02-04T00:33:18.637Z,0.00
2023-02-04T00:35:45.222Z,0.05
2023-02-04T00:38:11.752Z,0.00
2023-02-04T00:40:38.304Z,0.00
2023-02-04T00:43:05.379Z,0.00
2023-02-04T00:45:32.010Z,0.00
2023-02-04T00:47:59.413Z,0.00
2023-02-04T00:50:25.954Z,0.00
2023-02-04T00:52:52.608Z,0.20
2023-02-04T00:55:19.433Z,0.20
2023-02-04T00:57:49.252Z,0.10
2023-02-04T01:00:16.098Z,0.25
2023-02-04T01:02:44.036Z,0.00
2023-02-04T01:05:10.617Z,0.00
2023-02-04T01:07:37.876Z,0.00
2023-02-04T01:10:04.771Z,0.00
2023-02-04T01:12:31.305Z,0.05
2023-02-04T01:14:58.224Z,0.10
2023-02-04T01:17:25.065Z,0.20
2023-02-04T01:19:53.505Z,0.00
2023-02-04T01:22:20.253Z,0.00
2023-02-04T01:24:47.089Z,0.10
2023-02-04T01:27:32.381Z,0.00
2023-02-04T01:29:58.952Z,0.00
2023-02-04T01:32:25.527Z,0.03
2023-02-04T01:34:52.258Z,0.00
2023-02-04T01:37:18.905Z,0.00
2023-02-04T01:39:45.428Z,0.20
2023-02-04T01:42:13.499Z,0.30
2023-02-04T01:44:40.304Z,0.08
2023-02-04T01:47:07.004Z,0.00
2023-02-04T01:49:33.539Z,0.00
2023-02-04T01:52:00.246Z,0.10
2023-02-04T01:54:27.335Z,0.00
2023-02-04T01:56:55.389Z,0.10
2023-02-04T01:59:23.801Z,0.00
2023-02-04T02:01:52.504Z,0.00
2023-02-04T02:04:29.946Z,0.00
2023-02-04T02:07:01.692Z,0.05
2023-02-04T02:09:30.676Z,0.15
2023-02-04T02:11:57.698Z,0.08
2023-02-04T02:14:25.910Z,0.22
2023-02-04T02:16:52.533Z,0.30
2023-02-04T02:19:35.395Z,0.05
2023-02-04T02:22:22.077Z,0.47
2023-02-04T02:24:48.638Z,0.20
2023-02-04T02:27:15.186Z,0.00
2023-02-04T02:29:42.903Z,0.10
2023-02-04T02:32:12.583Z,0.10
2023-02-04T02:34:39.875Z,0.20
2023-02-04T02:37:08.947Z,0.00
2023-02-04T02:39:38.392Z,0.10
2023-02-04T02:42:05.220Z,0.15
2023-02-04T02:44:33.008Z,0.45
2023-02-04T02:47:00.276Z,0.03
2023-02-04T02:49:29.501Z,0.35
2023-02-04T02:51:56.040Z,0.25
2023-02-04T02:54:25.785Z,0.22
2023-02-04T02:56:55.619Z,0.10
2023-02-04T02:59:24.207Z,0.10
2023-02-04T03:02:01.271Z,0.30
2023-02-04T03:04:33.755Z,0.70
2023-02-04T03:07:01.310Z,0.25
2023-02-04T03:09:29.595Z,0.05
2023-02-04T03:11:56.429Z,0.13
2023-02-04T03:14:25.310Z,0.35
2023-02-04T03:16:54.328Z,0.20
2023-02-04T03:19:22.219Z,0.20
2023-02-04T03:21:49.515Z,0.30
2023-02-04T03:24:16.789Z,0.13
2023-02-04T03:26:43.423Z,0.15
2023-02-04T03:29:11.939Z,0.30
2023-02-04T03:31:38.888Z,0.30
2023-02-04T03:34:05.696Z,0.25
2023-02-04T03:36:32.613Z,0.15
2023-02-04T03:38:59.163Z,0.30
2023-02-04T03:41:25.702Z,0.28
2023-02-04T03:43:52.220Z,0.50
2023-02-04T03:46:18.860Z,0.10
2023-02-04T03:48:45.433Z,0.40
2023-02-04T03:51:11.984Z,0.43
2023-02-04T03:53:38.802Z,0.52
2023-02-04T03:56:05.452Z,0.22
2023-02-04T03:58:32.018Z,0.20
2023-02-04T04:00:58.783Z,0.13
2023-02-04T04:03:25.374Z,0.10
2023-02-04T04:05:51.885Z,0.65
2023-02-04T04:08:18.459Z,0.45
2023-02-04T04:10:45.032Z,0.13
2023-02-04T04:13:11.778Z,0.10
2023-02-04T04:15:38.348Z,0.50
2023-02-04T04:18:04.929Z,0.10
2023-02-04T04:20:31.770Z,0.40
2023-02-04T04:22:58.485Z,1.10
2023-02-04T04:25:25.351Z,0.50
2023-02-04T04:27:51.905Z,0.32
2023-02-04T04:30:18.652Z,0.32
2023-02-04T04:32:45.201Z,0.22
2023-02-04T04:35:11.701Z,0.28
2023-02-04T04:37:38.255Z,0.20
2023-02-04T04:40:05.160Z,0.20
2023-02-04T04:42:31.705Z,0.30
2023-02-04T04:44:58.250Z,0.20
2023-02-04T04:47:24.825Z,0.20
2023-02-04T04:49:51.371Z,0.73
2023-02-04T04:52:17.961Z,0.40
2023-02-04T04:54:44.530Z,0.30
2023-02-04T04:57:11.094Z,0.30
2023-02-04T04:59:37.652Z,0.35
2023-02-04T05:02:04.447Z,0.30
2023-02-04T05:04:31.057Z,0.40
2023-02-04T05:06:57.631Z,0.45
2023-02-04T05:09:24.162Z,0.25
2023-02-04T05:11:50.687Z,0.38
2023-02-04T05:14:17.212Z,0.73
2023-02-04T05:16:43.861Z,1.33
2023-02-04T05:19:10.436Z,0.43
2023-02-04T05:21:36.966Z,0.25
2023-02-04T05:24:03.552Z,0.38
2023-02-04T05:26:31.274Z,0.55
2023-02-04T05:29:00.446Z,0.50
2023-02-04T05:31:27.531Z,0.28
2023-02-04T05:33:54.558Z,0.35
2023-02-04T05:36:21.551Z,0.63
2023-02-04T05:38:48.183Z,0.20
2023-02-04T05:41:14.717Z,0.32
2023-02-04T05:43:41.286Z,0.20
2023-02-04T05:46:07.849Z,0.22
2023-02-04T05:48:34.460Z,0.95
2023-02-04T05:51:00.977Z,0.20
2023-02-04T05:53:27.547Z,0.30
2023-02-04T05:55:54.108Z,0.47
2023-02-04T05:58:20.598Z,0.32
2023-02-04T06:00:47.136Z,0.30
2023-02-04T06:03:14.502Z,0.40
2023-02-04T06:05:41.282Z,0.32
2023-02-04T06:08:07.826Z,0.17
2023-02-04T06:10:34.434Z,0.30
2023-02-04T06:13:01.048Z,0.20
2023-02-04T06:15:27.618Z,0.82
2023-02-04T06:17:54.210Z,0.20
2023-02-04T06:20:20.755Z,0.43
2023-02-04T06:22:47.613Z,0.10
2023-02-04T06:25:14.238Z,0.50
2023-02-04T06:27:40.797Z,0.35
2023-02-04T06:30:07.896Z,0.60
2023-02-04T06:32:34.469Z,0.52
2023-02-04T06:35:00.956Z,0.50
2023-02-04T06:37:27.516Z,0.75
2023-02-04T06:39:54.671Z,0.38
2023-02-04T06:42:21.307Z,0.40
2023-02-04T06:44:47.843Z,0.40
2023-02-04T06:47:14.363Z,0.40
2023-02-04T06:49:40.902Z,0.25
2023-02-04T06:52:07.462Z,0.50
2023-02-04T06:54:34.103Z,0.40
2023-02-04T06:57:06.518Z,0.45
2023-02-04T06:59:38.278Z,0.40
2023-02-04T07:02:06.872Z,0.30
2023-02-04T07:04:34.602Z,0.57
2023-02-04T07:07:01.190Z,0.25
2023-02-04T07:09:27.715Z,0.25
2023-02-04T07:11:54.295Z,0.52
2023-02-04T07:14:20.869Z,0.57
2023-02-04T07:16:47.450Z,0.30
2023-02-04T07:19:14.009Z,0.50
2023-02-04T07:21:40.561Z,0.52
2023-02-04T07:24:07.143Z,0.38
2023-02-04T07:26:34.338Z,0.40
2023-02-04T07:29:00.975Z,0.30
2023-02-04T07:31:27.762Z,0.43
2023-02-04T07:33:54.422Z,0.40
2023-02-04T07:36:21.084Z,0.47
2023-02-04T07:38:47.950Z,0.90
2023-02-04T07:41:14.624Z,0.43
2023-02-04T07:43:41.388Z,0.30
2023-02-04T07:46:07.981Z,0.47
2023-02-04T07:48:34.560Z,0.55
2023-02-04T07:51:01.106Z,0.30
2023-02-04T07:53:27.657Z,0.30
2023-02-04T07:55:54.179Z,0.50
2023-02-04T07:58:20.689Z,0.50
2023-02-04T08:00:47.244Z,0.73
2023-02-04T08:03:13.808Z,0.80
2023-02-04T08:05:40.328Z,0.68
2023-02-04T08:08:06.853Z,0.40
2023-02-04T08:10:34.182Z,0.77
2023-02-04T08:13:00.919Z,0.60
2023-02-04T08:15:27.439Z,0.30
2023-02-04T08:17:53.940Z,0.50
2023-02-04T08:20:20.567Z,0.50
2023-02-04T08:22:47.157Z,0.30
2023-02-04T08:25:13.812Z,0.22
2023-02-04T08:27:40.540Z,0.30
2023-02-04T08:30:07.681Z,0.47
2023-02-04T08:32:34.291Z,0.40
2023-02-04T08:35:01.338Z,0.43
2023-02-04T08:37:28.196Z,0.35
2023-02-04T08:39:55.865Z,0.40
2023-02-04T08:42:22.521Z,0.75
2023-02-04T08:44:49.226Z,0.57
2023-02-04T08:47:16.032Z,0.40
2023-02-04T08:49:42.662Z,0.40
2023-02-04T08:52:09.375Z,0.52
2023-02-04T08:54:36.196Z,0.45
2023-02-04T08:57:02.989Z,0.32
2023-02-04T08:59:29.711Z,0.50
2023-02-04T09:01:56.282Z,0.55
2023-02-04T09:04:23.510Z,0.57
2023-02-04T09:06:51.373Z,0.65
2023-02-04T09:09:18.015Z,0.52
2023-02-04T09:11:44.550Z,0.40
2023-02-04T09:14:11.393Z,0.43
2023-02-04T09:16:38.025Z,0.40
2023-02-04T09:19:05.476Z,0.68
2023-02-04T09:21:32.010Z,0.50
2023-02-04T09:23:58.644Z,0.70
2023-02-04T09:26:25.227Z,0.40
2023-02-04T09:28:51.748Z,0.40
2023-02-04T09:31:18.839Z,0.35
2023-02-04T09:33:45.497Z,0.63
2023-02-04T09:36:12.388Z,0.73
2023-02-04T09:38:39.146Z,0.70
2023-02-04T09:41:12.164Z,1.00
2023-02-04T09:43:42.898Z,0.40
2023-02-04T09:46:19.408Z,0.65
2023-02-04T09:48:46.085Z,0.68
2023-02-04T09:51:16.755Z,0.40
2023-02-04T09:53:43.362Z,0.50
2023-02-04T09:56:11.951Z,0.30
2023-02-04T09:58:38.478Z,0.30
2023-02-04T10:01:15.733Z,0.30
2023-02-04T10:03:48.372Z,0.50
2023-02-04T10:06:17.511Z,0.30
2023-02-04T10:08:47.328Z,0.50
2023-02-04T10:11:14.903Z,0.38
2023-02-04T10:13:45.057Z,0.80
2023-02-04T10:16:29.623Z,0.40
2023-02-04T10:19:01.754Z,0.40
2023-02-04T10:21:32.085Z,0.73
2023-02-04T10:24:01.228Z,0.30
2023-02-04T10:26:29.952Z,1.13
2023-02-04T10:29:04.626Z,0.65
2023-02-04T10:31:37.051Z,0.30
2023-02-04T10:34:07.587Z,0.90
2023-02-04T10:36:34.296Z,0.40
2023-02-04T10:39:10.828Z,0.40
2023-02-04T10:41:39.960Z,0.43
2023-02-04T10:44:12.762Z,0.40
2023-02-04T10:46:39.371Z,0.20
2023-02-04T10:49:17.756Z,1.10
2023-02-04T10:51:44.635Z,0.50
2023-02-04T10:54:31.382Z,0.50
2023-02-04T10:57:14.423Z,0.63
2023-02-04T10:59:41.927Z,0.40
2023-02-04T11:03:04.171Z,0.70
2023-02-04T11:05:35.639Z,1.58
2023-02-04T11:08:03.794Z,0.40
2023-02-04T11:10:33.131Z,0.40
2023-02-04T11:13:01.252Z,0.85
2023-02-04T11:15:51.222Z,0.30
2023-02-04T11:18:20.394Z,0.50
2023-02-04T11:20:52.100Z,0.35
2023-02-04T11:23:27.457Z,0.30
2023-02-04T11:26:17.294Z,0.45
2023-02-04T11:29:16.711Z,0.52
2023-02-04T11:31:46.511Z,0.47
2023-02-04T11:34:44.902Z,0.55
2023-02-04T11:37:28.463Z,0.25
2023-02-04T11:39:59.921Z,0.60
2023-02-04T11:42:41.199Z,0.40
2023-02-04T11:45:17.736Z,0.35
2023-02-04T11:47:44.567Z,0.25
2023-02-04T11:50:17.166Z,0.25
2023-02-04T11:52:43.796Z,0.28
2023-02-04T11:55:11.961Z,0.30
2023-02-04T11:57:44.233Z,0.60
2023-02-04T12:00:19.977Z,0.50
2023-02-04T12:02:49.185Z,0.47
2023-02-04T12:05:18.437Z,0.38
2023-02-04T12:07:45.979Z,0.30
2023-02-04T12:10:16.829Z,0.30
2023-02-04T12:12:49.212Z,0.30
2023-02-04T12:15:21.328Z,0.57
2023-02-04T12:18:01.039Z,0.35
2023-02-04T12:20:27.565Z,0.30
2023-02-04T12:22:54.322Z,0.73
2023-02-04T12:25:20.854Z,0.30
2023-02-04T12:27:47.388Z,0.52
2023-02-04T12:30:14.084Z,0.32
2023-02-04T12:32:40.604Z,0.30
2023-02-04T12:35:07.591Z,0.63
2023-02-04T12:37:34.265Z,0.30
2023-02-04T12:40:00.797Z,0.32
2023-02-04T12:42:27.320Z,0.50
2023-02-04T12:44:53.856Z,0.40
2023-02-04T12:47:20.411Z,0.30
2023-02-04T12:49:46.992Z,0.95
2023-02-04T12:52:13.668Z,0.35
2023-02-04T12:54:40.196Z,0.30
2023-02-04T12:57:06.766Z,0.20
2023-02-04T12:59:33.456Z,0.50
2023-02-04T13:02:00.072Z,0.30
2023-02-04T13:04:26.679Z,0.47
2023-02-04T13:06:53.234Z,0.40
2023-02-04T13:09:19.778Z,0.32
2023-02-04T13:11:46.342Z,0.30
2023-02-04T13:14:12.886Z,0.40
2023-02-04T13:16:39.425Z,0.35
2023-02-04T13:19:06.065Z,0.30
2023-02-04T13:21:32.680Z,0.50
2023-02-04T13:23:59.818Z,0.40
2023-02-04T13:26:26.519Z,0.40
2023-02-04T13:28:53.212Z,0.30
2023-02-04T13:31:19.930Z,0.30
2023-02-04T13:33:46.584Z,0.50
2023-02-04T13:36:13.276Z,0.40
2023-02-04T13:38:39.938Z,0.60
2023-02-04T13:41:06.530Z,0.75
2023-02-04T13:43:33.140Z,0.75
2023-02-04T13:46:00.660Z,0.35
2023-02-04T13:48:27.219Z,1.05
2023-02-04T13:50:53.740Z,0.28
2023-02-04T13:53:20.245Z,0.40
2023-02-04T13:55:46.841Z,0.65
2023-02-04T13:58:13.656Z,0.52
2023-02-04T14:00:40.306Z,0.40
2023-02-04T14:03:06.865Z,0.55
2023-02-04T14:05:33.412Z,0.52
2023-02-04T14:08:00.977Z,0.30
2023-02-04T14:10:27.628Z,0.30
2023-02-04T14:12:54.238Z,0.40
2023-02-04T14:15:20.762Z,0.60
2023-02-04T14:17:47.400Z,0.40
2023-02-04T14:20:14.062Z,0.50
2023-02-04T14:22:40.759Z,0.28
2023-02-04T14:25:09.818Z,0.50
2023-02-04T14:27:38.409Z,0.50
2023-02-04T14:30:06.173Z,0.45
2023-02-04T14:32:32.709Z,0.47
2023-02-04T14:34:59.242Z,0.40
2023-02-04T14:37:28.388Z,0.45
2023-02-04T14:39:55.121Z,0.30
2023-02-04T14:42:21.657Z,0.40
2023-02-04T14:44:48.216Z,0.30
2023-02-04T14:47:14.900Z,0.35
2023-02-04T14:49:41.490Z,0.30
2023-02-04T14:52:09.713Z,0.30
2023-02-04T14:54:37.171Z,0.50
2023-02-04T14:57:04.401Z,0.30
2023-02-04T14:59:30.931Z,0.77
2023-02-04T15:01:57.674Z,0.35
2023-02-04T15:04:24.247Z,0.25
2023-02-04T15:06:53.852Z,0.45
2023-02-04T15:09:20.425Z,0.82
2023-02-04T15:11:47.080Z,0.43
2023-02-04T15:14:13.759Z,0.63
2023-02-04T15:16:41.966Z,0.20
2023-02-04T15:19:09.208Z,0.30
2023-02-04T15:21:36.044Z,0.30
2023-02-04T15:24:02.571Z,0.40
2023-02-04T15:26:29.117Z,0.50
2023-02-04T15:28:55.682Z,0.80
2023-02-04T15:31:23.779Z,0.50
2023-02-04T15:33:50.911Z,0.47
2023-02-04T15:36:17.522Z,0.50
2023-02-04T15:38:44.412Z,0.40
2023-02-04T15:41:31.767Z,0.32
2023-02-04T15:43:58.323Z,0.50
2023-02-04T15:46:24.874Z,0.52
2023-02-04T15:48:51.460Z,0.73
2023-02-04T15:51:18.033Z,0.50
2023-02-04T15:53:44.619Z,0.57
2023-02-04T15:56:11.199Z,0.50
2023-02-04T15:58:38.378Z,0.60
2023-02-04T16:01:05.173Z,0.65
2023-02-04T16:03:31.764Z,0.30
2023-02-04T16:05:58.326Z,0.40
2023-02-04T16:08:24.882Z,0.40
2023-02-04T16:10:53.880Z,0.40
2023-02-04T16:13:21.217Z,0.40
2023-02-04T16:15:47.784Z,0.30
2023-02-04T16:18:14.366Z,0.60
2023-02-04T16:20:40.885Z,0.60
2023-02-04T16:23:08.084Z,0.40
2023-02-04T16:25:35.018Z,0.60
2023-02-04T16:28:02.350Z,0.40
2023-02-04T16:30:28.942Z,0.50
2023-02-04T16:32:55.492Z,0.52
2023-02-04T16:35:22.088Z,0.40
2023-02-04T16:37:48.682Z,0.60
2023-02-04T16:40:15.315Z,0.60
2023-02-04T16:42:41.863Z,0.47
2023-02-04T16:45:08.956Z,0.73
2023-02-04T16:47:35.607Z,0.40
2023-02-04T16:50:02.672Z,0.40
2023-02-04T16:52:29.697Z,0.50
2023-02-04T16:54:56.392Z,0.40
2023-02-04T16:57:23.224Z,0.40
2023-02-04T16:59:49.959Z,0.80
2023-02-04T17:02:16.623Z,0.35
2023-02-04T17:04:43.151Z,0.40
2023-02-04T17:07:09.829Z,0.65
2023-02-04T17:09:36.959Z,0.50
2023-02-04T17:12:03.628Z,0.55
2023-02-04T17:14:30.221Z,0.40
2023-02-04T17:16:56.769Z,0.52
2023-02-04T17:19:24.192Z,0.88
2023-02-04T17:21:50.820Z,0.60
2023-02-04T17:24:17.495Z,0.70
2023-02-04T17:26:44.036Z,0.40
2023-02-04T17:29:13.822Z,0.80
2023-02-04T17:31:43.135Z,0.63
2023-02-04T17:34:10.602Z,0.47
2023-02-04T17:36:37.518Z,0.60
2023-02-04T17:39:05.067Z,0.57
2023-02-04T17:41:32.406Z,0.45
2023-02-04T17:43:59.639Z,0.50
2023-02-04T17:46:26.627Z,0.68
2023-02-04T17:48:53.340Z,0.60
2023-02-04T17:51:19.964Z,0.82
2023-02-04T17:53:46.539Z,1.02
2023-02-04T17:56:14.506Z,1.05
2023-02-04T17:58:41.857Z,0.82
2023-02-04T18:01:18.746Z,0.50
2023-02-04T18:03:48.617Z,0.73
2023-02-04T18:06:25.112Z,0.70
2023-02-04T18:08:52.746Z,1.02
2023-02-04T18:11:27.418Z,0.65
2023-02-04T18:13:59.437Z,0.65
2023-02-04T18:16:30.095Z,0.40
2023-02-04T18:19:08.429Z,0.50
2023-02-04T18:21:36.973Z,0.57
2023-02-04T18:24:20.358Z,0.50
2023-02-04T18:26:50.106Z,0.38
2023-02-04T18:29:26.843Z,0.70
2023-02-04T18:32:18.051Z,0.47
2023-02-04T18:34:46.958Z,0.70
2023-02-04T18:37:35.833Z,0.98
2023-02-04T18:40:23.868Z,0.80
2023-02-04T18:42:53.982Z,0.63
2023-02-04T18:45:24.991Z,0.52
2023-02-04T18:47:55.181Z,0.50
2023-02-04T18:50:33.384Z,0.40
2023-02-04T18:53:12.405Z,0.70
2023-02-04T18:55:41.646Z,0.50
2023-02-04T18:58:31.050Z,0.40
2023-02-04T19:01:03.562Z,0.73
2023-02-04T19:03:33.389Z,0.60
2023-02-04T19:06:02.459Z,0.50
2023-02-04T19:08:40.519Z,0.57
2023-02-04T19:11:23.166Z,0.60
2023-02-04T19:13:52.835Z,0.47
2023-02-04T19:16:25.892Z,0.75
2023-02-04T19:18:56.765Z,0.70
2023-02-04T19:21:31.421Z,0.52
2023-02-04T19:24:21.352Z,0.60
2023-02-04T19:26:55.278Z,0.73
2023-02-04T19:29:23.153Z,0.70
2023-02-04T19:31:52.803Z,0.65
2023-02-04T19:34:38.068Z,0.55
2023-02-04T19:37:26.410Z,0.50
2023-02-04T19:39:55.133Z,1.05
2023-02-04T19:42:28.573Z,0.60
2023-02-04T19:44:59.240Z,0.60
2023-02-04T19:47:37.496Z,0.73
2023-02-04T19:50:13.372Z,0.75
2023-02-04T19:52:54.407Z,0.85
2023-02-04T19:55:28.030Z,0.80
2023-02-04T19:57:58.841Z,0.55
2023-02-04T20:00:28.412Z,0.70
2023-02-04T20:02:56.878Z,0.80
2023-02-04T20:05:24.090Z,0.80
2023-02-04T20:07:50.604Z,1.27
2023-02-04T20:10:25.018Z,0.50
2023-02-04T20:12:55.727Z,0.77
2023-02-04T20:15:25.546Z,0.80
2023-02-04T20:17:52.818Z,0.73
2023-02-04T20:20:29.791Z,0.60
2023-02-04T20:23:23.074Z,0.68
2023-02-04T20:25:50.420Z,0.88
2023-02-04T20:28:36.155Z,0.93
2023-02-04T20:31:15.567Z,0.73
2023-02-04T20:33:49.163Z,0.88
2023-02-04T20:36:18.398Z,0.63
2023-02-04T20:38:45.781Z,0.82
2023-02-04T20:41:22.345Z,0.77
2023-02-04T20:43:49.905Z,0.50
2023-02-04T20:46:25.636Z,0.75
2023-02-04T20:48:52.613Z,0.60
2023-02-04T20:51:23.247Z,0.70
2023-02-04T20:53:55.280Z,1.20
2023-02-04T20:56:26.585Z,1.20
2023-02-04T20:59:12.326Z,1.05
2023-02-04T21:01:46.855Z,1.60
2023-02-04T21:04:36.633Z,1.02
2023-02-04T21:07:16.775Z,0.88
2023-02-04T21:09:43.431Z,1.08
2023-02-04T21:12:10.544Z,1.00
2023-02-04T21:14:37.287Z,1.58
2023-02-04T21:17:04.455Z,1.02
2023-02-04T21:19:33.074Z,0.98
2023-02-04T21:21:59.700Z,1.25
2023-02-04T21:24:26.864Z,1.08
2023-02-04T21:26:53.888Z,0.95
2023-02-04T21:29:20.490Z,0.93
2023-02-04T21:31:47.059Z,0.90
2023-02-04T21:34:14.720Z,1.67
2023-02-04T21:36:41.251Z,1.38
2023-02-04T21:39:07.821Z,0.63
2023-02-04T21:41:34.430Z,1.65
2023-02-04T21:44:00.941Z,1.05
2023-02-04T21:46:27.560Z,0.65
2023-02-04T21:48:54.079Z,1.45
2023-02-04T21:51:20.629Z,1.05
2023-02-04T21:53:47.194Z,0.98
2023-02-04T21:56:14.364Z,0.98
2023-02-04T21:58:40.970Z,1.10
2023-02-04T22:01:07.504Z,1.50
2023-02-04T22:03:34.134Z,1.58
2023-02-04T22:06:00.785Z,1.17
2023-02-04T22:08:27.409Z,1.35
2023-02-04T22:10:53.918Z,0.90
2023-02-04T22:13:20.457Z,0.90
2023-02-04T22:15:48.100Z,1.15
2023-02-04T22:18:14.747Z,1.75
2023-02-04T22:20:41.301Z,0.95
2023-02-04T22:23:08.026Z,1.27
2023-02-04T22:25:34.925Z,1.10
2023-02-04T22:28:01.740Z,1.10
2023-02-04T22:30:28.335Z,1.45
2023-02-04T22:32:56.405Z,1.23
2023-02-04T22:35:23.098Z,1.48
2023-02-04T22:37:49.637Z,0.95
2023-02-04T22:40:16.217Z,1.27
2023-02-04T22:42:42.821Z,1.90
2023-02-04T22:45:10.304Z,1.30
2023-02-04T22:47:37.007Z,1.20
2023-02-04T22:50:03.817Z,1.42
2023-02-04T22:52:30.391Z,0.88
2023-02-04T22:54:56.907Z,0.80
2023-02-04T22:57:23.612Z,1.33
2023-02-04T22:59:50.138Z,2.20
2023-02-04T23:02:16.716Z,1.48
2023-02-04T23:04:44.082Z,1.30
2023-02-04T23:07:12.257Z,1.23
2023-02-04T23:09:39.639Z,1.52
2023-02-04T23:12:15.234Z,1.00
2023-02-04T23:14:44.503Z,1.38
2023-02-04T23:17:12.226Z,1.15
2023-02-04T23:19:38.789Z,1.10
2023-02-04T23:22:06.050Z,1.02
2023-02-04T23:24:33.244Z,1.90
2023-02-04T23:27:00.216Z,1.00
2023-02-04T23:29:28.425Z,1.00
2023-02-04T23:31:55.721Z,1.27
2023-02-04T23:34:22.285Z,0.80
2023-02-04T23:36:51.109Z,1.17
2023-02-04T23:39:18.852Z,1.67
2023-02-04T23:41:45.521Z,1.42
2023-02-04T23:44:12.324Z,1.60
2023-02-04T23:46:38.856Z,1.17
2023-02-04T23:49:05.510Z,1.00
2023-02-04T23:51:32.919Z,1.70
2023-02-04T23:53:59.576Z,0.80
2023-02-04T23:56:26.106Z,1.23
2023-02-04T23:58:53.593Z,1.13
